createdAt,value
2022-11-15T00:09:46.227Z,5.07
2022-11-15T00:39:50.426Z,4.88
2022-11-15T01:09:54.552Z,5.80
2022-11-15T01:39:58.774Z,5.50
2022-11-15T02:10:08.069Z,7.50
2022-11-15T02:40:18.721Z,6.00
2022-11-15T04:12:47.151Z,3.50
2022-11-15T04:42:51.298Z,3.10
2022-11-15T05:12:55.440Z,2.58
2022-11-15T05:42:59.761Z,3.10
2022-11-15T06:13:05.348Z,3.42
2022-11-15T06:43:09.565Z,4.22
2022-11-15T07:13:13.732Z,4.68
2022-11-15T07:43:17.843Z,4.10
2022-11-15T08:13:22.244Z,3.78
2022-11-15T08:43:26.526Z,4.20
2022-11-15T09:13:31.122Z,3.85
2022-11-15T09:43:43.011Z,3.35
2022-11-15T10:13:49.076Z,3.00
2022-11-15T10:44:13.130Z,2.60
2022-11-15T11:14:23.389Z,2.00
2022-11-15T11:44:35.725Z,1.65
2022-11-15T12:14:43.954Z,1.63
2022-11-15T12:45:01.054Z,1.80
2022-11-15T13:15:39.672Z,1.63
2022-11-15T13:45:46.910Z,1.63
2022-11-15T14:41:48.640Z,2.20
2022-11-15T15:11:55.546Z,2.70
2022-11-15T15:41:59.700Z,5.35
2022-11-15T16:12:03.766Z,12.13
2022-11-15T16:42:08.051Z,7.65
2022-11-15T17:12:12.360Z,7.65
2022-11-15T17:42:16.615Z,7.07
2022-11-15T18:12:21.067Z,7.10
2022-11-15T18:42:25.269Z,5.55
2022-11-15T19:12:29.443Z,3.10
2022-11-15T19:42:33.589Z,6.43
2022-11-15T20:12:37.698Z,3.30
2022-11-15T20:42:41.913Z,3.00
2022-11-15T21:12:45.968Z,3.38
2022-11-15T21:42:49.985Z,3.60
2022-11-15T22:12:53.978Z,4.15
2022-11-15T22:42:58.111Z,4.40
2022-11-15T23:13:17.106Z,5.03
2022-11-15T23:43:23.219Z,5.00
